sensor_id;sensor_type;location;lat;lon;timestamp;pressure;altitude;pressure_sealevel;temperature;humidity
43878;BME280;29815;48.184;11.268;2023-04-01T00:01:49;94352.84;;;6.97;100.00
43878;BME280;29815;48.184;11.268;2023-04-01T00:04:18;94349.34;;;7.02;100.00
43878;BME280;29815;48.184;11.268;2023-04-01T00:06:48;94349.63;;;7.00;100.00
43878;BME280;29815;48.184;11.268;2023-04-01T00:09:19;94339.19;;;6.99;100.00
43878;BME280;29815;48.184;11.268;2023-04-01T00:11:49;94338.69;;;6.92;100.00
43878;BME280;29815;48.184;11.268;2023-04-01T00:14:18;94341.09;;;6.93;100.00
43878;BME280;29815;48.184;11.268;2023-04-01T00:16:49;94338.69;;;6.92;100.00
43878;BME280;29815;48.184;11.268;2023-04-01T00:19:18;94332.28;;;6.88;100.00
43878;BME280;29815;48.184;11.268;2023-04-01T00:21:48;94352.16;;;6.82;100.00
43878;BME280;29815;48.184;11.268;2023-04-01T00:24:17;94336.91;;;6.82;100.00
43878;BME280;29815;48.184;11.268;2023-04-01T00:26:47;94336.31;;;6.85;100.00
43878;BME280;29815;48.184;11.268;2023-04-01T00:29:17;94344.03;;;6.92;100.00
43878;BME280;29815;48.184;11.268;2023-04-01T00:31:46;94340.38;;;6.77;100.00
43878;BME280;29815;48.184;11.268;2023-04-01T00:34:18;94340.38;;;6.83;100.00
43878;BME280;29815;48.184;11.268;2023-04-01T00:36:48;94337.38;;;6.84;100.00
43878;BME280;29815;48.184;11.268;2023-04-01T00:39:18;94336.31;;;6.85;100.00
43878;BME280;29815;48.184;11.268;2023-04-01T00:41:47;94352.63;;;6.89;100.00
43878;BME280;29815;48.184;11.268;2023-04-01T00:44:21;94346.69;;;6.97;100.00
43878;BME280;29815;48.184;11.268;2023-04-01T00:46:52;94340.31;;;6.88;100.00
43878;BME280;29815;48.184;11.268;2023-04-01T00:49:27;94342.47;;;6.86;100.00
43878;BME280;29815;48.184;11.268;2023-04-01T00:52:01;94337.13;;;6.86;100.00
43878;BME280;29815;48.184;11.268;2023-04-01T00:54:32;94353.41;;;6.94;100.00
43878;BME280;29815;48.184;11.268;2023-04-01T00:57:07;94347.25;;;6.94;100.00
43878;BME280;29815;48.184;11.268;2023-04-01T00:59:43;94343.19;;;7.01;100.00
43878;BME280;29815;48.184;11.268;2023-04-01T01:02:14;94350.94;;;7.03;100.00
43878;BME280;29815;48.184;11.268;2023-04-01T01:04:46;94350.16;;;7.02;100.00
43878;BME280;29815;48.184;11.268;2023-04-01T01:07:24;94341.56;;;7.05;100.00
43878;BME280;29815;48.184;11.268;2023-04-01T01:10:03;94351.00;;;6.93;100.00
43878;BME280;29815;48.184;11.268;2023-04-01T01:12:43;94335.69;;;7.03;100.00
43878;BME280;29815;48.184;11.268;2023-04-01T01:15:22;94347.78;;;6.96;100.00
43878;BME280;29815;48.184;11.268;2023-04-01T01:18:18;94336.28;;;6.90;100.00
43878;BME280;29815;48.184;11.268;2023-04-01T01:21:30;94341.91;;;6.89;100.00
43878;BME280;29815;48.184;11.268;2023-04-01T01:24:37;94325.69;;;6.80;100.00
43878;BME280;29815;48.184;11.268;2023-04-01T01:27:13;94342.78;;;6.79;100.00
43878;BME280;29815;48.184;11.268;2023-04-01T01:30:17;94319.44;;;6.90;100.00
43878;BME280;29815;48.184;11.268;2023-04-01T01:33:16;94316.75;;;6.95;100.00
43878;BME280;29815;48.184;11.268;2023-04-01T01:35:56;94316.75;;;6.95;100.00
43878;BME280;29815;48.184;11.268;2023-04-01T01:38:28;94321.53;;;6.98;100.00
43878;BME280;29815;48.184;11.268;2023-04-01T01:41:05;94329.56;;;6.98;100.00
43878;BME280;29815;48.184;11.268;2023-04-01T01:43:39;94321.28;;;6.99;100.00
43878;BME280;29815;48.184;11.268;2023-04-01T01:46:16;94324.53;;;6.91;100.00
43878;BME280;29815;48.184;11.268;2023-04-01T01:48:50;94325.81;;;6.99;100.00
43878;BME280;29815;48.184;11.268;2023-04-01T01:51:23;94328.75;;;7.02;100.00
43878;BME280;29815;48.184;11.268;2023-04-01T01:53:53;94327.94;;;7.02;100.00
43878;BME280;29815;48.184;11.268;2023-04-01T01:56:27;94337.28;;;7.04;100.00
43878;BME280;29815;48.184;11.268;2023-04-01T01:59:01;94327.66;;;7.03;100.00
43878;BME280;29815;48.184;11.268;2023-04-01T02:01:37;94313.22;;;7.04;100.00
43878;BME280;29815;48.184;11.268;2023-04-01T02:04:14;94318.03;;;7.07;100.00
43878;BME280;29815;48.184;11.268;2023-04-01T02:06:50;94321.72;;;7.11;100.00
43878;BME280;29815;48.184;11.268;2023-04-01T02:09:22;94334.06;;;7.07;100.00
43878;BME280;29815;48.184;11.268;2023-04-01T02:11:56;94318.56;;;7.04;100.00
43878;BME280;29815;48.184;11.268;2023-04-01T02:14:29;94317.75;;;7.09;100.00
43878;BME280;29815;48.184;11.268;2023-04-01T02:17:10;94332.47;;;7.06;100.00
43878;BME280;29815;48.184;11.268;2023-04-01T02:19:46;94307.34;;;7.02;100.00
43878;BME280;29815;48.184;11.268;2023-04-01T02:22:22;94329.03;;;7.01;100.00
43878;BME280;29815;48.184;11.268;2023-04-01T02:24:58;94334.66;;;6.99;100.00
43878;BME280;29815;48.184;11.268;2023-04-01T02:27:30;94337.38;;;6.89;100.00
43878;BME280;29815;48.184;11.268;2023-04-01T02:30:00;94332.00;;;6.94;100.00
43878;BME280;29815;48.184;11.268;2023-04-01T02:32:32;94351.78;;;6.93;100.00
43878;BME280;29815;48.184;11.268;2023-04-01T02:35:04;94348.06;;;6.89;100.00
43878;BME280;29815;48.184;11.268;2023-04-01T02:37:36;94335.22;;;6.91;100.00
43878;BME280;29815;48.184;11.268;2023-04-01T02:40:13;94335.84;;;6.78;100.00
43878;BME280;29815;48.184;11.268;2023-04-01T02:42:44;94337.44;;;6.79;100.00
43878;BME280;29815;48.184;11.268;2023-04-01T02:45:14;94343.63;;;6.74;100.00
43878;BME280;29815;48.184;11.268;2023-04-01T02:47:43;94354.56;;;6.78;100.00
43878;BME280;29815;48.184;11.268;2023-04-01T02:50:13;94341.75;;;6.70;100.00
43878;BME280;29815;48.184;11.268;2023-04-01T02:52:44;94356.44;;;6.77;100.00
43878;BME280;29815;48.184;11.268;2023-04-01T02:55:14;94344.41;;;6.80;100.00
43878;BME280;29815;48.184;11.268;2023-04-01T02:57:43;94345.75;;;6.72;100.00
43878;BME280;29815;48.184;11.268;2023-04-01T03:00:15;94359.38;;;6.76;100.00
43878;BME280;29815;48.184;11.268;2023-04-01T03:02:45;94360.72;;;6.78;100.00
43878;BME280;29815;48.184;11.268;2023-04-01T03:05:15;94356.16;;;6.79;100.00
43878;BME280;29815;48.184;11.268;2023-04-01T03:07:46;94361.53;;;6.69;100.00
43878;BME280;29815;48.184;11.268;2023-04-01T03:10:16;94360.97;;;6.77;100.00
43878;BME280;29815;48.184;11.268;2023-04-01T03:12:45;94360.47;;;6.70;100.00
43878;BME280;29815;48.184;11.268;2023-04-01T03:15:15;94350.88;;;6.59;100.00
43878;BME280;29815;48.184;11.268;2023-04-01T03:17:45;94353.03;;;6.57;100.00
43878;BME280;29815;48.184;11.268;2023-04-01T03:20:15;94350.13;;;6.53;100.00
43878;BME280;29815;48.184;11.268;2023-04-01T03:22:46;94356.03;;;6.50;100.00
43878;BME280;29815;48.184;11.268;2023-04-01T03:25:15;94356.84;;;6.40;100.00
43878;BME280;29815;48.184;11.268;2023-04-01T03:27:45;94366.19;;;6.43;100.00
43878;BME280;29815;48.184;11.268;2023-04-01T03:30:15;94374.22;;;6.38;100.00
43878;BME280;29815;48.184;11.268;2023-04-01T03:32:50;94360.88;;;6.38;100.00
43878;BME280;29815;48.184;11.268;2023-04-01T03:35:19;94377.94;;;6.47;100.00
43878;BME280;29815;48.184;11.268;2023-04-01T03:37:52;94370.22;;;6.40;100.00
43878;BME280;29815;48.184;11.268;2023-04-01T03:40:22;94374.22;;;6.43;100.00
43878;BME280;29815;48.184;11.268;2023-04-01T03:42:52;94361.94;;;6.37;100.00
43878;BME280;29815;48.184;11.268;2023-04-01T03:45:22;94363.28;;;6.34;100.00
43878;BME280;29815;48.184;11.268;2023-04-01T03:47:52;94369.94;;;6.37;100.00
43878;BME280;29815;48.184;11.268;2023-04-01T03:50:21;94372.88;;;6.35;100.00
43878;BME280;29815;48.184;11.268;2023-04-01T03:52:52;94371.56;;;6.33;100.00
43878;BME280;29815;48.184;11.268;2023-04-01T03:55:22;94370.81;;;6.27;100.00
43878;BME280;29815;48.184;11.268;2023-04-01T03:57:51;94368.13;;;6.22;100.00
43878;BME280;29815;48.184;11.268;2023-04-01T04:00:21;94378.84;;;6.12;100.00
43878;BME280;29815;48.184;11.268;2023-04-01T04:02:55;94371.06;;;6.26;100.00
43878;BME280;29815;48.184;11.268;2023-04-01T04:05:30;94373.75;;;6.26;100.00
43878;BME280;29815;48.184;11.268;2023-04-01T04:08:03;94375.56;;;6.35;100.00
43878;BME280;29815;48.184;11.268;2023-04-01T04:10:34;94372.88;;;6.35;100.00
43878;BME280;29815;48.184;11.268;2023-04-01T04:13:03;94370.47;;;6.39;100.00
43878;BME280;29815;48.184;11.268;2023-04-01T04:15:38;94378.28;;;6.25;100.00
43878;BME280;29815;48.184;11.268;2023-04-01T04:18:08;94380.91;;;6.35;100.00
43878;BME280;29815;48.184;11.268;2023-04-01T04:20:44;94379.31;;;6.34;100.00
43878;BME280;29815;48.184;11.268;2023-04-01T04:23:16;94383.59;;;6.35;100.00
43878;BME280;29815;48.184;11.268;2023-04-01T04:25:55;94375.34;;;6.27;100.00
43878;BME280;29815;48.184;11.268;2023-04-01T04:28:27;94388.94;;;6.35;100.00
43878;BME280;29815;48.184;11.268;2023-04-01T04:30:58;94394.50;;;6.49;100.00
43878;BME280;29815;48.184;11.268;2023-04-01T04:33:28;94392.63;;;6.55;100.00
43878;BME280;29815;48.184;11.268;2023-04-01T04:35:58;94383.03;;;6.49;100.00
43878;BME280;29815;48.184;11.268;2023-04-01T04:38:30;94393.44;;;6.55;100.00
43878;BME280;29815;48.184;11.268;2023-04-01T04:41:00;94394.25;;;6.51;100.00
43878;BME280;29815;48.184;11.268;2023-04-01T04:43:29;94403.81;;;6.62;100.00
43878;BME280;29815;48.184;11.268;2023-04-01T04:46:05;94399.50;;;6.71;100.00
43878;BME280;29815;48.184;11.268;2023-04-01T04:48:35;94384.00;;;6.73;100.00
43878;BME280;29815;48.184;11.268;2023-04-01T04:51:05;94397.34;;;6.78;100.00
43878;BME280;29815;48.184;11.268;2023-04-01T04:53:36;94389.00;;;6.85;100.00
43878;BME280;29815;48.184;11.268;2023-04-01T04:56:06;94390.84;;;6.89;100.00
43878;BME280;29815;48.184;11.268;2023-04-01T04:58:59;94386.63;;;6.83;100.00
43878;BME280;29815;48.184;11.268;2023-04-01T05:01:40;94384.22;;;6.82;100.00
43878;BME280;29815;48.184;11.268;2023-04-01T05:04:10;94388.19;;;6.89;100.00
43878;BME280;29815;48.184;11.268;2023-04-01T05:06:39;94399.69;;;6.90;100.00
43878;BME280;29815;48.184;11.268;2023-04-01T05:09:10;94388.16;;;6.94;100.00
43878;BME280;29815;48.184;11.268;2023-04-01T05:11:40;94380.94;;;6.95;100.00
43878;BME280;29815;48.184;11.268;2023-04-01T05:14:13;94383.59;;;7.00;100.00
43878;BME280;29815;48.184;11.268;2023-04-01T05:16:49;94388.97;;;6.95;100.00
43878;BME280;29815;48.184;11.268;2023-04-01T05:19:19;94401.25;;;6.96;100.00
43878;BME280;29815;48.184;11.268;2023-04-01T05:21:48;94388.16;;;6.99;100.00
43878;BME280;29815;48.184;11.268;2023-04-01T05:24:19;94386.00;;;7.01;100.00
43878;BME280;29815;48.184;11.268;2023-04-01T05:26:50;94394.28;;;7.00;100.00
43878;BME280;29815;48.184;11.268;2023-04-01T05:29:20;94392.16;;;7.02;100.00
43878;BME280;29815;48.184;11.268;2023-04-01T05:31:55;94394.81;;;7.02;100.00
43878;BME280;29815;48.184;11.268;2023-04-01T05:34:25;94396.97;;;7.00;100.00
43878;BME280;29815;48.184;11.268;2023-04-01T05:36:54;94398.56;;;7.01;100.00
43878;BME280;29815;48.184;11.268;2023-04-01T05:39:25;94386.25;;;7.05;100.00
43878;BME280;29815;48.184;11.268;2023-04-01T05:41:55;94378.75;;;7.07;100.00
43878;BME280;29815;48.184;11.268;2023-04-01T05:44:24;94398.84;;;6.99;100.00
43878;BME280;29815;48.184;11.268;2023-04-01T05:47:04;94383.31;;;7.06;100.00
43878;BME280;29815;48.184;11.268;2023-04-01T05:49:34;94385.19;;;7.06;100.00
43878;BME280;29815;48.184;11.268;2023-04-01T05:52:04;94383.56;;;7.05;100.00
43878;BME280;29815;48.184;11.268;2023-04-01T05:54:37;94383.31;;;7.01;100.00
43878;BME280;29815;48.184;11.268;2023-04-01T05:57:06;94415.34;;;7.11;100.00
43878;BME280;29815;48.184;11.268;2023-04-01T05:59:36;94395.38;;;6.99;100.00
43878;BME280;29815;48.184;11.268;2023-04-01T06:02:06;94401.25;;;7.01;100.00
43878;BME280;29815;48.184;11.268;2023-04-01T06:04:39;94388.13;;;7.04;100.00
43878;BME280;29815;48.184;11.268;2023-04-01T06:07:15;94392.88;;;7.12;100.00
43878;BME280;29815;48.184;11.268;2023-04-01T06:09:47;94395.81;;;7.16;100.00
43878;BME280;29815;48.184;11.268;2023-04-01T06:12:49;94390.69;;;7.20;100.00
43878;BME280;29815;48.184;11.268;2023-04-01T06:15:32;94375.38;;;7.35;100.00
43878;BME280;29815;48.184;11.268;2023-04-01T06:18:58;94383.84;;;7.42;100.00
43878;BME280;29815;48.184;11.268;2023-04-01T06:22:22;94390.25;;;7.46;100.00
43878;BME280;29815;48.184;11.268;2023-04-01T06:25:36;94403.06;;;7.55;100.00
43878;BME280;29815;48.184;11.268;2023-04-01T06:32:01;94383.19;;;7.66;100.00
43878;BME280;29815;48.184;11.268;2023-04-01T06:35:02;94404.25;;;7.72;100.00
43878;BME280;29815;48.184;11.268;2023-04-01T06:38:34;94384.34;;;7.84;100.00
43878;BME280;29815;48.184;11.268;2023-04-01T06:44:55;94401.94;;;7.95;100.00
43878;BME280;29815;48.184;11.268;2023-04-01T06:48:10;94394.09;;;8.03;100.00
43878;BME280;29815;48.184;11.268;2023-04-01T06:51:30;94396.50;;;8.05;100.00
43878;BME280;29815;48.184;11.268;2023-04-01T06:54:33;94404.44;;;8.15;100.00
43878;BME280;29815;48.184;11.268;2023-04-01T06:57:41;94394.28;;;8.12;100.00
43878;BME280;29815;48.184;11.268;2023-04-01T07:00:15;94404.81;;;8.03;100.00
43878;BME280;29815;48.184;11.268;2023-04-01T07:02:54;94405.88;;;8.02;100.00
43878;BME280;29815;48.184;11.268;2023-04-01T07:05:34;94398.81;;;8.17;100.00
43878;BME280;29815;48.184;11.268;2023-04-01T07:08:09;94405.50;;;8.19;100.00
43878;BME280;29815;48.184;11.268;2023-04-01T07:10:45;94395.31;;;8.16;100.00
43878;BME280;29815;48.184;11.268;2023-04-01T07:13:41;94394.47;;;8.21;100.00
43878;BME280;29815;48.184;11.268;2023-04-01T07:16:20;94402.69;;;8.29;100.00
43878;BME280;29815;48.184;11.268;2023-04-01T07:18:56;94393.28;;;8.32;100.00
43878;BME280;29815;48.184;11.268;2023-04-01T07:21:44;94408.31;;;8.33;100.00
43878;BME280;29815;48.184;11.268;2023-04-01T07:24:27;94395.06;;;8.46;100.00
43878;BME280;29815;48.184;11.268;2023-04-01T07:27:08;94408.28;;;8.62;100.00
43878;BME280;29815;48.184;11.268;2023-04-01T07:29:41;94416.63;;;8.60;100.00
43878;BME280;29815;48.184;11.268;2023-04-01T07:32:27;94419.19;;;8.70;100.00
43878;BME280;29815;48.184;11.268;2023-04-01T07:35:13;94417.59;;;8.69;100.00
43878;BME280;29815;48.184;11.268;2023-04-01T07:38:03;94412.59;;;8.81;100.00
43878;BME280;29815;48.184;11.268;2023-04-01T07:40:46;94412.38;;;8.78;100.00
43878;BME280;29815;48.184;11.268;2023-04-01T07:43:47;94427.63;;;8.82;100.00
43878;BME280;29815;48.184;11.268;2023-04-01T07:46:56;94407.28;;;8.76;100.00
43878;BME280;29815;48.184;11.268;2023-04-01T07:49:43;94423.63;;;8.80;100.00
43878;BME280;29815;48.184;11.268;2023-04-01T07:52:23;94421.19;;;8.83;100.00
43878;BME280;29815;48.184;11.268;2023-04-01T07:55:11;94417.19;;;8.81;100.00
43878;BME280;29815;48.184;11.268;2023-04-01T07:57:50;94421.97;;;8.84;100.00
43878;BME280;29815;48.184;11.268;2023-04-01T08:00:27;94421.63;;;8.91;100.00
43878;BME280;29815;48.184;11.268;2023-04-01T08:03:29;94423.47;;;8.95;100.00
43878;BME280;29815;48.184;11.268;2023-04-01T08:06:14;94420.63;;;9.05;100.00
43878;BME280;29815;48.184;11.268;2023-04-01T08:09:01;94422.19;;;9.11;100.00
43878;BME280;29815;48.184;11.268;2023-04-01T08:12:10;94412.69;;;9.19;100.00
43878;BME280;29815;48.184;11.268;2023-04-01T08:15:13;94415.03;;;9.26;100.00
43878;BME280;29815;48.184;11.268;2023-04-01T08:18:12;94409.50;;;9.17;100.00
43878;BME280;29815;48.184;11.268;2023-04-01T08:20:53;94393.63;;;9.21;100.00
43878;BME280;29815;48.184;11.268;2023-04-01T08:23:28;94384.47;;;9.40;100.00
43878;BME280;29815;48.184;11.268;2023-04-01T08:26:05;94396.78;;;9.60;100.00
43878;BME280;29815;48.184;11.268;2023-04-01T08:28:45;94410.72;;;9.62;100.00
43878;BME280;29815;48.184;11.268;2023-04-01T08:31:28;94409.22;;;9.75;100.00
43878;BME280;29815;48.184;11.268;2023-04-01T08:34:02;94382.09;;;9.90;100.00
43878;BME280;29815;48.184;11.268;2023-04-01T08:36:38;94389.41;;;10.03;100.00
43878;BME280;29815;48.184;11.268;2023-04-01T08:39:20;94389.84;;;10.10;100.00
43878;BME280;29815;48.184;11.268;2023-04-01T08:42:19;94386.94;;;10.07;100.00
43878;BME280;29815;48.184;11.268;2023-04-01T08:45:25;94384.84;;;10.17;100.00
43878;BME280;29815;48.184;11.268;2023-04-01T08:51:38;94408.53;;;10.15;100.00
43878;BME280;29815;48.184;11.268;2023-04-01T08:55:19;94388.06;;;10.20;100.00
43878;BME280;29815;48.184;11.268;2023-04-01T09:02:02;94382.63;;;10.25;100.00
43878;BME280;29815;48.184;11.268;2023-04-01T09:05:38;94375.09;;;10.08;100.00
43878;BME280;29815;48.184;11.268;2023-04-01T09:08:42;94371.34;;;10.23;100.00
43878;BME280;29815;48.184;11.268;2023-04-01T09:11:31;94373.16;;;10.27;100.00
43878;BME280;29815;48.184;11.268;2023-04-01T09:21:35;94392.19;;;10.44;100.00
43878;BME280;29815;48.184;11.268;2023-04-01T09:25:05;94377.06;;;10.48;100.00
43878;BME280;29815;48.184;11.268;2023-04-01T09:27:49;94378.88;;;10.53;100.00
43878;BME280;29815;48.184;11.268;2023-04-01T09:30:44;94371.50;;;10.86;100.00
43878;BME280;29815;48.184;11.268;2023-04-01T09:34:12;94374.78;;;10.97;100.00
43878;BME280;29815;48.184;11.268;2023-04-01T09:37:18;94362.03;;;10.89;100.00
43878;BME280;29815;48.184;11.268;2023-04-01T09:40:15;94366.09;;;11.00;100.00
43878;BME280;29815;48.184;11.268;2023-04-01T09:43:14;94375.69;;;10.65;98.94
43878;BME280;29815;48.184;11.268;2023-04-01T09:46:16;94356.75;;;10.70;100.00
43878;BME280;29815;48.184;11.268;2023-04-01T09:52:33;94363.44;;;10.59;100.00
43878;BME280;29815;48.184;11.268;2023-04-01T09:55:55;94369.03;;;10.62;100.00
43878;BME280;29815;48.184;11.268;2023-04-01T09:59:12;94361.22;;;10.47;97.59
43878;BME280;29815;48.184;11.268;2023-04-01T10:14:22;94370.41;;;10.60;100.00
43878;BME280;29815;48.184;11.268;2023-04-01T10:17:35;94366.63;;;10.74;100.00
43878;BME280;29815;48.184;11.268;2023-04-01T10:20:54;94365.22;;;10.77;100.00
43878;BME280;29815;48.184;11.268;2023-04-01T10:24:04;94353.25;;;10.83;100.00
43878;BME280;29815;48.184;11.268;2023-04-01T10:27:20;94365.41;;;10.67;100.00
43878;BME280;29815;48.184;11.268;2023-04-01T10:30:42;94367.34;;;10.66;100.00
43878;BME280;29815;48.184;11.268;2023-04-01T10:34:27;94378.47;;;10.73;100.00
43878;BME280;29815;48.184;11.268;2023-04-01T10:37:23;94373.81;;;10.65;100.00
43878;BME280;29815;48.184;11.268;2023-04-01T10:40:43;94380.16;;;10.56;100.00
43878;BME280;29815;48.184;11.268;2023-04-01T10:48:14;94393.72;;;10.18;100.00
43878;BME280;29815;48.184;11.268;2023-04-01T10:51:14;94393.34;;;9.92;100.00
43878;BME280;29815;48.184;11.268;2023-04-01T10:54:17;94386.88;;;9.93;100.00
43878;BME280;29815;48.184;11.268;2023-04-01T10:57:37;94398.28;;;10.04;100.00
43878;BME280;29815;48.184;11.268;2023-04-01T11:01:22;94381.44;;;9.98;100.00
43878;BME280;29815;48.184;11.268;2023-04-01T11:15:31;94400.28;;;9.42;100.00
43878;BME280;29815;48.184;11.268;2023-04-01T11:19:02;94397.38;;;9.20;100.00
43878;BME280;29815;48.184;11.268;2023-04-01T11:22:35;94417.53;;;8.98;100.00
43878;BME280;29815;48.184;11.268;2023-04-01T11:25:29;94422.66;;;8.95;100.00
43878;BME280;29815;48.184;11.268;2023-04-01T11:28:50;94440.88;;;8.74;100.00
43878;BME280;29815;48.184;11.268;2023-04-01T11:31:39;94419.22;;;8.41;100.00
43878;BME280;29815;48.184;11.268;2023-04-01T11:34:43;94425.13;;;8.09;100.00
43878;BME280;29815;48.184;11.268;2023-04-01T11:37:38;94425.97;;;8.05;100.00
43878;BME280;29815;48.184;11.268;2023-04-01T11:40:35;94415.56;;;7.98;100.00
43878;BME280;29815;48.184;11.268;2023-04-01T11:43:34;94429.13;;;7.78;100.00
43878;BME280;29815;48.184;11.268;2023-04-01T11:46:33;94416.88;;;7.67;100.00
43878;BME280;29815;48.184;11.268;2023-04-01T11:49:29;94409.94;;;7.66;100.00
43878;BME280;29815;48.184;11.268;2023-04-01T11:55:46;94410.81;;;7.56;100.00
43878;BME280;29815;48.184;11.268;2023-04-01T11:58:46;94407.63;;;7.54;100.00
43878;BME280;29815;48.184;11.268;2023-04-01T12:01:54;94412.47;;;7.47;100.00
43878;BME280;29815;48.184;11.268;2023-04-01T12:04:54;94416.75;;;7.48;100.00
43878;BME280;29815;48.184;11.268;2023-04-01T12:08:01;94404.16;;;7.48;100.00
43878;BME280;29815;48.184;11.268;2023-04-01T12:10:40;94403.88;;;7.50;100.00
43878;BME280;29815;48.184;11.268;2023-04-01T12:13:28;94408.38;;;7.60;100.00
43878;BME280;29815;48.184;11.268;2023-04-01T12:16:19;94420.41;;;7.62;100.00
43878;BME280;29815;48.184;11.268;2023-04-01T12:19:00;94401.97;;;7.56;100.00
43878;BME280;29815;48.184;11.268;2023-04-01T12:21:38;94407.28;;;7.66;100.00
43878;BME280;29815;48.184;11.268;2023-04-01T12:24:31;94409.16;;;7.65;100.00
43878;BME280;29815;48.184;11.268;2023-04-01T12:30:36;94405.78;;;7.84;100.00
43878;BME280;29815;48.184;11.268;2023-04-01T12:33:45;94416.72;;;7.92;100.00
43878;BME280;29815;48.184;11.268;2023-04-01T12:36:45;94409.94;;;8.00;100.00
43878;BME280;29815;48.184;11.268;2023-04-01T12:39:48;94418.47;;;8.02;100.00
43878;BME280;29815;48.184;11.268;2023-04-01T12:42:51;94405.09;;;8.02;100.00
43878;BME280;29815;48.184;11.268;2023-04-01T12:45:30;94419.25;;;8.07;100.00
43878;BME280;29815;48.184;11.268;2023-04-01T12:51:35;94429.88;;;8.18;100.00
43878;BME280;29815;48.184;11.268;2023-04-01T12:54:55;94437.47;;;8.05;100.00
43878;BME280;29815;48.184;11.268;2023-04-01T12:58:06;94421.38;;;8.10;100.00
43878;BME280;29815;48.184;11.268;2023-04-01T13:01:37;94426.50;;;8.07;100.00
43878;BME280;29815;48.184;11.268;2023-04-01T13:05:10;94446.59;;;8.04;100.00
43878;BME280;29815;48.184;11.268;2023-04-01T13:08:00;94426.25;;;8.03;100.00
43878;BME280;29815;48.184;11.268;2023-04-01T13:10:54;94429.41;;;8.10;100.00
43878;BME280;29815;48.184;11.268;2023-04-01T13:14:25;94427.31;;;8.02;100.00
43878;BME280;29815;48.184;11.268;2023-04-01T13:17:10;94428.88;;;8.08;100.00
43878;BME280;29815;48.184;11.268;2023-04-01T13:19:48;94433.69;;;8.11;100.00
43878;BME280;29815;48.184;11.268;2023-04-01T13:22:49;94443.13;;;8.04;100.00
43878;BME280;29815;48.184;11.268;2023-04-01T13:25:36;94439.09;;;8.06;100.00
43878;BME280;29815;48.184;11.268;2023-04-01T13:28:15;94436.03;;;8.18;100.00
43878;BME280;29815;48.184;11.268;2023-04-01T13:30:56;94431.78;;;8.17;100.00
43878;BME280;29815;48.184;11.268;2023-04-01T13:33:36;94447.22;;;8.25;100.00
43878;BME280;29815;48.184;11.268;2023-04-01T13:36:19;94432.97;;;8.35;100.00
43878;BME280;29815;48.184;11.268;2023-04-01T13:39:16;94437.97;;;8.46;100.00
43878;BME280;29815;48.184;11.268;2023-04-01T13:42:18;94437.38;;;8.49;100.00
43878;BME280;29815;48.184;11.268;2023-04-01T13:45:00;94441.72;;;8.45;100.00
43878;BME280;29815;48.184;11.268;2023-04-01T13:51:16;94453.53;;;8.44;100.00
43878;BME280;29815;48.184;11.268;2023-04-01T13:54:19;94434.25;;;8.42;100.00
43878;BME280;29815;48.184;11.268;2023-04-01T13:57:33;94441.72;;;8.45;100.00
43878;BME280;29815;48.184;11.268;2023-04-01T14:00:41;94431.84;;;8.41;100.00
43878;BME280;29815;48.184;11.268;2023-04-01T14:03:36;94419.56;;;8.59;100.00
43878;BME280;29815;48.184;11.268;2023-04-01T14:06:20;94459.94;;;8.72;100.00
43878;BME280;29815;48.184;11.268;2023-04-01T14:09:19;94423.84;;;8.83;100.00
43878;BME280;29815;48.184;11.268;2023-04-01T14:12:06;94449.09;;;8.82;100.00
43878;BME280;29815;48.184;11.268;2023-04-01T14:14:56;94442.06;;;8.87;100.00
43878;BME280;29815;48.184;11.268;2023-04-01T14:18:04;94438.88;;;8.85;100.00
43878;BME280;29815;48.184;11.268;2023-04-01T14:20:48;94441.59;;;8.79;100.00
43878;BME280;29815;48.184;11.268;2023-04-01T14:23:54;94424.03;;;8.68;100.00
43878;BME280;29815;48.184;11.268;2023-04-01T14:26:55;94435.34;;;8.65;100.00
43878;BME280;29815;48.184;11.268;2023-04-01T14:29:37;94441.69;;;8.74;100.00
43878;BME280;29815;48.184;11.268;2023-04-01T14:32:24;94435.53;;;8.74;100.00
43878;BME280;29815;48.184;11.268;2023-04-01T14:35:25;94443.78;;;8.77;100.00
43878;BME280;29815;48.184;11.268;2023-04-01T14:38:29;94447.94;;;8.65;100.00
43878;BME280;29815;48.184;11.268;2023-04-01T14:41:19;94461.00;;;8.47;100.00
43878;BME280;29815;48.184;11.268;2023-04-01T14:47:47;94451.22;;;8.33;100.00
43878;BME280;29815;48.184;11.268;2023-04-01T14:50:22;94443.16;;;8.33;100.00
43878;BME280;29815;48.184;11.268;2023-04-01T14:52:57;94441.53;;;8.37;100.00
43878;BME280;29815;48.184;11.268;2023-04-01T14:55:33;94441.88;;;8.54;100.00
43878;BME280;29815;48.184;11.268;2023-04-01T14:58:11;94458.22;;;8.58;100.00
43878;BME280;29815;48.184;11.268;2023-04-01T15:00:51;94450.16;;;8.58;100.00
43878;BME280;29815;48.184;11.268;2023-04-01T15:03:31;94447.94;;;8.65;100.00
43878;BME280;29815;48.184;11.268;2023-04-01T15:06:40;94455.31;;;8.78;100.00
43878;BME280;29815;48.184;11.268;2023-04-01T15:09:26;94450.63;;;8.89;100.00
43878;BME280;29815;48.184;11.268;2023-04-01T15:12:11;94449.84;;;8.88;100.00
43878;BME280;29815;48.184;11.268;2023-04-01T15:15:09;94460.09;;;9.05;100.00
43878;BME280;29815;48.184;11.268;2023-04-01T15:18:01;94458.50;;;9.04;100.00
43878;BME280;29815;48.184;11.268;2023-04-01T15:21:01;94463.28;;;9.07;100.00
43878;BME280;29815;48.184;11.268;2023-04-01T15:23:57;94462.50;;;9.06;100.00
43878;BME280;29815;48.184;11.268;2023-04-01T15:27:00;94472.09;;;9.12;100.00
43878;BME280;29815;48.184;11.268;2023-04-01T15:30:27;94479.16;;;9.03;100.00
43878;BME280;29815;48.184;11.268;2023-04-01T15:36:39;94468.44;;;9.03;100.00
43878;BME280;29815;48.184;11.268;2023-04-01T15:39:16;94468.09;;;9.10;100.00